createdAt,value
2019-02-06T00:00:58.594Z,99053.84
2019-02-06T00:05:13.672Z,99045.80
2019-02-06T00:09:08.857Z,99045.55
2019-02-06T00:13:12.335Z,99048.86
2019-02-06T00:17:15.813Z,99053.98
2019-02-06T00:21:20.675Z,99050.15
2019-02-06T00:25:24.308Z,99054.67
2019-02-06T00:29:27.770Z,99050.36
2019-02-06T00:33:31.518Z,99041.92
2019-02-06T00:37:34.970Z,99048.02
2019-02-06T00:41:38.437Z,99054.78
2019-02-06T00:45:41.920Z,99047.84
2019-02-06T00:49:45.378Z,99048.30
2019-02-06T00:53:48.857Z,99041.92
2019-02-06T00:57:52.312Z,99055.72
2019-02-06T01:01:55.776Z,99052.73
2019-02-06T01:05:59.238Z,99060.05
2019-02-06T01:10:02.726Z,99060.98
2019-02-06T01:14:06.161Z,99054.95
2019-02-06T01:18:09.624Z,99056.66
2019-02-06T01:22:13.094Z,99060.17
2019-02-06T01:26:16.557Z,99064.59
2019-02-06T01:30:21.670Z,99065.15
2019-02-06T01:34:25.118Z,99057.98
2019-02-06T01:38:28.586Z,99059.34
2019-02-06T01:42:32.048Z,99060.62
2019-02-06T01:46:35.526Z,99054.98
2019-02-06T01:50:39.354Z,99046.34
2019-02-06T01:54:42.833Z,99047.13
2019-02-06T01:58:46.558Z,99043.19
2019-02-06T02:02:50.025Z,99043.97
2019-02-06T02:06:53.492Z,99036.12
2019-02-06T02:10:56.939Z,99041.54
2019-02-06T02:15:00.409Z,99024.33
2019-02-06T02:19:03.872Z,99029.12
2019-02-06T02:23:07.344Z,99028.36
2019-02-06T02:27:10.807Z,99023.27
2019-02-06T02:31:14.325Z,99017.27
2019-02-06T02:35:17.784Z,99007.41
2019-02-06T02:39:21.254Z,99006.14
2019-02-06T02:43:24.719Z,99007.91
2019-02-06T02:47:28.190Z,99000.23
2019-02-06T02:51:31.644Z,98991.62
2019-02-06T02:55:35.112Z,98992.91
2019-02-06T02:59:38.569Z,98985.23
2019-02-06T03:03:46.690Z,98989.19
2019-02-06T03:07:50.148Z,98981.48
2019-02-06T03:11:53.614Z,98985.06
2019-02-06T03:15:57.072Z,98980.95
2019-02-06T03:20:00.573Z,98977.66
2019-02-06T03:24:03.991Z,98979.09
2019-02-06T03:28:07.562Z,98966.68
2019-02-06T03:32:11.002Z,98963.34
2019-02-06T03:36:14.443Z,98964.22
2019-02-06T03:40:17.910Z,98953.07
2019-02-06T03:44:21.369Z,98953.92
2019-02-06T03:48:24.818Z,98954.44
2019-02-06T03:52:28.282Z,98953.62
2019-02-06T03:56:31.742Z,98955.80
2019-02-06T04:00:35.201Z,98962.71
2019-02-06T04:04:38.661Z,98962.30
2019-02-06T04:08:43.453Z,98957.65
2019-02-06T04:12:46.907Z,98949.89
2019-02-06T04:16:50.748Z,98947.28
2019-02-06T04:20:54.206Z,98940.81
2019-02-06T04:24:57.666Z,98932.61
2019-02-06T04:29:01.127Z,98933.91
2019-02-06T04:33:04.580Z,98926.14
2019-02-06T04:37:08.041Z,98924.83
2019-02-06T04:41:11.503Z,98928.25
2019-02-06T04:45:14.971Z,98926.55
2019-02-06T04:49:18.416Z,98923.12
2019-02-06T04:53:21.877Z,98921.41
2019-02-06T04:57:25.345Z,98920.14
2019-02-06T05:01:28.810Z,98926.61
2019-02-06T05:05:32.278Z,98922.34
2019-02-06T05:09:35.731Z,98924.08
2019-02-06T05:13:39.190Z,98919.78
2019-02-06T05:17:42.658Z,98920.27
2019-02-06T05:21:46.148Z,98914.22
2019-02-06T05:25:49.986Z,98918.97
2019-02-06T05:29:53.451Z,98916.39
2019-02-06T05:33:57.291Z,98904.31
2019-02-06T05:38:00.760Z,98904.75
2019-02-06T05:42:04.301Z,98912.06
2019-02-06T05:46:07.785Z,98909.48
2019-02-06T05:50:11.257Z,98908.64
2019-02-06T05:54:14.721Z,98904.31
2019-02-06T05:58:18.187Z,98911.23
2019-02-06T06:02:21.651Z,98910.77
2019-02-06T06:06:25.102Z,98905.59
2019-02-06T06:10:28.566Z,98910.76
2019-02-06T06:14:32.030Z,98907.28
2019-02-06T06:18:35.502Z,98905.55
2019-02-06T06:22:38.971Z,98899.08
2019-02-06T06:26:42.430Z,98902.97
2019-02-06T06:30:47.384Z,98905.99
2019-02-06T06:34:50.957Z,98906.42
2019-02-06T06:38:54.412Z,98908.13
2019-02-06T06:42:57.877Z,98903.86
2019-02-06T06:47:01.334Z,98897.84
2019-02-06T06:51:04.799Z,98893.12
2019-02-06T06:55:08.260Z,98891.88
2019-02-06T06:59:11.724Z,98898.83
2019-02-06T07:03:15.191Z,98904.41
2019-02-06T07:07:18.917Z,98895.33
2019-02-06T07:11:22.386Z,98900.09
2019-02-06T07:15:26.023Z,98901.80
2019-02-06T07:19:29.490Z,98897.05
2019-02-06T07:23:32.958Z,98893.62
2019-02-06T07:27:36.427Z,98890.17
2019-02-06T07:31:39.890Z,98894.91
2019-02-06T07:35:43.360Z,98900.97
2019-02-06T07:39:46.828Z,98900.61
2019-02-06T07:43:50.291Z,98893.70
2019-02-06T07:47:53.771Z,98896.33
2019-02-06T07:51:57.234Z,98903.23
2019-02-06T07:56:00.699Z,98903.69
2019-02-06T08:00:04.240Z,98907.98
2019-02-06T08:04:08.780Z,98908.86
2019-02-06T08:08:12.237Z,98910.15
2019-02-06T08:12:15.714Z,98916.17
2019-02-06T08:16:19.176Z,98918.28
2019-02-06T08:20:22.644Z,98917.41
2019-02-06T08:24:26.494Z,98918.69
2019-02-06T08:28:29.962Z,98925.27
2019-02-06T08:32:33.800Z,98921.97
2019-02-06T08:36:37.272Z,98922.77
2019-02-06T08:40:40.744Z,98925.75
2019-02-06T08:44:44.213Z,98927.45
2019-02-06T08:48:47.679Z,98924.44
2019-02-06T08:52:51.148Z,98924.47
2019-02-06T08:56:54.612Z,98923.61
2019-02-06T09:00:58.090Z,98921.91
2019-02-06T09:05:01.562Z,98926.63
2019-02-06T09:09:05.037Z,98926.22
2019-02-06T09:13:10.081Z,98935.73
2019-02-06T09:17:13.544Z,98932.31
2019-02-06T09:21:17.018Z,98925.01
2019-02-06T09:25:20.476Z,98919.86
2019-02-06T09:29:23.934Z,98925.05
2019-02-06T09:33:27.678Z,98922.91
2019-02-06T09:37:31.167Z,98916.84
2019-02-06T09:41:35.004Z,98921.17
2019-02-06T09:45:38.458Z,98920.30
2019-02-06T09:49:42.107Z,98914.23
2019-02-06T09:53:45.585Z,98911.59
2019-02-06T09:57:49.056Z,98913.30
2019-02-06T10:01:53.609Z,98909.38
2019-02-06T10:05:57.065Z,98902.86
2019-02-06T10:10:00.535Z,98905.84
2019-02-06T10:14:03.996Z,98904.07
2019-02-06T10:18:07.477Z,98905.34
2019-02-06T10:22:10.932Z,98904.44
2019-02-06T10:26:14.378Z,98896.53
2019-02-06T10:30:17.851Z,98888.74
2019-02-06T10:34:21.326Z,98890.45
2019-02-06T10:38:24.786Z,98889.63
2019-02-06T10:42:28.245Z,98888.80
2019-02-06T10:46:31.701Z,98887.50
2019-02-06T10:50:35.161Z,98873.99
2019-02-06T10:54:38.638Z,98879.99
2019-02-06T10:58:42.374Z,98865.20
2019-02-06T11:02:45.853Z,98861.67
2019-02-06T11:06:49.686Z,98853.36
2019-02-06T11:10:53.149Z,98844.22
2019-02-06T11:14:56.622Z,98842.48
2019-02-06T11:19:00.102Z,98827.80
2019-02-06T11:23:03.565Z,98825.66
2019-02-06T11:27:07.033Z,98826.97
2019-02-06T11:31:10.496Z,98820.51
2019-02-06T11:35:13.962Z,98814.88
2019-02-06T11:39:19.076Z,98806.99
2019-02-06T11:43:22.673Z,98802.62
2019-02-06T11:47:26.075Z,98798.77
2019-02-06T11:51:29.627Z,98800.06
2019-02-06T11:55:33.079Z,98790.05
2019-02-06T11:59:36.544Z,98792.08
2019-02-06T12:03:40.011Z,98791.99
2019-02-06T12:07:43.844Z,98792.47
2019-02-06T12:11:47.319Z,98787.65
2019-02-06T12:15:51.057Z,98783.17
2019-02-06T12:19:54.527Z,98778.77
2019-02-06T12:23:58.059Z,98772.22
2019-02-06T12:28:01.538Z,98759.70
2019-02-06T12:32:05.004Z,98752.83
2019-02-06T12:36:08.473Z,98748.48
2019-02-06T12:40:21.195Z,98749.78
2019-02-06T12:44:17.091Z,98741.38
2019-02-06T12:48:20.867Z,98737.73
2019-02-06T12:52:24.304Z,98726.39
2019-02-06T12:56:27.770Z,98730.66
2019-02-06T13:00:31.233Z,98727.25
2019-02-06T13:04:34.695Z,98721.13
2019-02-06T13:08:38.165Z,98713.56
2019-02-06T13:12:41.629Z,98706.86
2019-02-06T13:16:45.096Z,98706.28
2019-02-06T13:20:51.195Z,98697.61
2019-02-06T13:24:53.710Z,98694.55
2019-02-06T13:28:57.184Z,98688.47
2019-02-06T13:33:00.644Z,98685.95
2019-02-06T13:37:04.129Z,98672.33
2019-02-06T13:41:07.603Z,98678.23
2019-02-06T13:45:11.055Z,98664.98
2019-02-06T13:49:14.530Z,98670.74
2019-02-06T13:53:18.000Z,98658.23
2019-02-06T13:57:33.106Z,98659.16
2019-02-06T14:01:26.917Z,98657.42
2019-02-06T14:05:30.374Z,98654.02
2019-02-06T14:09:34.934Z,98651.09
2019-02-06T14:13:38.393Z,98651.14
2019-02-06T14:17:41.867Z,98640.21
2019-02-06T14:21:46.421Z,98634.08
2019-02-06T14:25:49.870Z,98632.27
2019-02-06T14:29:53.340Z,98632.09
2019-02-06T14:33:56.806Z,98628.48
2019-02-06T14:38:00.271Z,98624.81
2019-02-06T14:42:03.826Z,98630.33
2019-02-06T14:46:07.291Z,98634.16
2019-02-06T14:50:11.139Z,98628.44
2019-02-06T14:54:15.571Z,98633.12
2019-02-06T14:58:19.123Z,98619.70
2019-02-06T15:02:23.570Z,98620.63
2019-02-06T15:06:27.433Z,98622.86
2019-02-06T15:10:30.910Z,98612.50
2019-02-06T15:14:34.451Z,98614.70
2019-02-06T15:18:37.919Z,98609.56
2019-02-06T15:22:41.389Z,98600.53
2019-02-06T15:26:44.849Z,98595.46
2019-02-06T15:30:48.308Z,98581.69
2019-02-06T15:34:52.144Z,98576.14
2019-02-06T15:38:55.611Z,98571.95
2019-02-06T15:42:59.076Z,98569.16
2019-02-06T15:47:02.540Z,98567.19
2019-02-06T15:51:06.047Z,98569.48
2019-02-06T15:55:09.493Z,98566.14
2019-02-06T15:59:12.959Z,98572.31
2019-02-06T16:03:16.427Z,98571.56
2019-02-06T16:07:19.894Z,98571.69
2019-02-06T16:11:23.362Z,98563.66
2019-02-06T16:15:26.837Z,98565.97
2019-02-06T16:19:30.310Z,98555.69
2019-02-06T16:23:33.762Z,98556.28
2019-02-06T16:27:37.407Z,98552.05
2019-02-06T16:31:40.872Z,98543.08
2019-02-06T16:35:44.715Z,98543.59
2019-02-06T16:39:48.190Z,98544.06
2019-02-06T16:43:51.636Z,98546.70
2019-02-06T16:47:56.177Z,98559.70
2019-02-06T16:51:59.642Z,98558.88
2019-02-06T16:56:03.199Z,98556.74
2019-02-06T17:00:06.662Z,98555.48
2019-02-06T17:04:10.127Z,98549.92
2019-02-06T17:08:13.589Z,98560.33
2019-02-06T17:12:17.069Z,98563.81
2019-02-06T17:16:20.536Z,98555.17
2019-02-06T17:20:24.380Z,98557.36
2019-02-06T17:24:27.838Z,98548.75
2019-02-06T17:28:31.308Z,98547.94
2019-02-06T17:32:34.777Z,98546.27
2019-02-06T17:36:38.254Z,98540.22
2019-02-06T17:40:41.717Z,98541.11
2019-02-06T17:44:45.169Z,98524.72
2019-02-06T17:48:48.642Z,98519.56
2019-02-06T17:52:52.112Z,98518.72
2019-02-06T17:56:55.594Z,98520.91
2019-02-06T18:01:00.709Z,98507.95
2019-02-06T18:05:05.512Z,98506.25
2019-02-06T18:09:09.048Z,98514.45
2019-02-06T18:13:12.513Z,98508.41
2019-02-06T18:17:15.982Z,98518.75
2019-02-06T18:21:19.513Z,98514.00
2019-02-06T18:25:22.972Z,98529.11
2019-02-06T18:29:26.442Z,98523.06
2019-02-06T18:33:29.970Z,98509.70
2019-02-06T18:37:33.377Z,98501.91
2019-02-06T18:41:36.834Z,98493.70
2019-02-06T18:45:40.298Z,98478.63
2019-02-06T18:49:43.774Z,98482.50
2019-02-06T18:53:47.239Z,98489.89
2019-02-06T18:57:50.704Z,98489.47
2019-02-06T19:01:55.476Z,98484.28
2019-02-06T19:05:59.174Z,98468.74
2019-02-06T19:10:03.010Z,98466.60
2019-02-06T19:14:06.517Z,98448.96
2019-02-06T19:18:10.258Z,98439.04
2019-02-06T19:22:13.716Z,98431.23
2019-02-06T19:26:17.253Z,98441.17
2019-02-06T19:30:20.719Z,98442.01
2019-02-06T19:34:24.188Z,98433.34
2019-02-06T19:38:27.660Z,98416.89
2019-02-06T19:42:31.112Z,98422.47
2019-02-06T19:46:34.581Z,98423.33
2019-02-06T19:50:38.228Z,98437.58
2019-02-06T19:54:41.688Z,98441.47
2019-02-06T19:58:45.162Z,98425.03
2019-02-06T20:02:48.621Z,98418.98
2019-02-06T20:06:54.103Z,98414.27
2019-02-06T20:10:57.243Z,98401.78
2019-02-06T20:15:00.714Z,98393.20
2019-02-06T20:19:04.176Z,98386.38
2019-02-06T20:23:07.636Z,98372.61
2019-02-06T20:27:11.104Z,98373.09
2019-02-06T20:31:14.571Z,98371.84
2019-02-06T20:35:18.044Z,98372.77
2019-02-06T20:39:21.492Z,98376.66
2019-02-06T20:43:24.957Z,98382.32
2019-02-06T20:47:28.427Z,98368.10
2019-02-06T20:51:32.723Z,98362.97
2019-02-06T20:55:36.188Z,98367.31
2019-02-06T20:59:39.645Z,98366.92
2019-02-06T21:03:43.115Z,98369.09
2019-02-06T21:07:46.595Z,98362.20
2019-02-06T21:11:50.064Z,98357.48
2019-02-06T21:15:53.534Z,98350.61
2019-02-06T21:19:57.368Z,98347.61
2019-02-06T21:24:00.834Z,98341.59
2019-02-06T21:28:04.475Z,98344.60
2019-02-06T21:32:07.936Z,98337.70
2019-02-06T21:36:11.386Z,98325.23
2019-02-06T21:40:14.846Z,98317.48
2019-02-06T21:44:18.318Z,98310.55
2019-02-06T21:48:22.387Z,98307.34
2019-02-06T21:52:25.923Z,98303.88
2019-02-06T21:56:29.385Z,98294.42
2019-02-06T22:00:32.864Z,98288.01
2019-02-06T22:04:36.310Z,98282.86
2019-02-06T22:08:39.774Z,98282.88
2019-02-06T22:12:43.229Z,98275.12
2019-02-06T22:16:46.696Z,98273.86
2019-02-06T22:20:50.552Z,98265.67
2019-02-06T22:24:54.013Z,98268.31
2019-02-06T22:28:57.754Z,98270.45
2019-02-06T22:33:01.209Z,98271.37
2019-02-06T22:37:04.680Z,98267.08
2019-02-06T22:41:08.144Z,98263.20
2019-02-06T22:45:11.608Z,98257.14
2019-02-06T22:49:15.080Z,98254.15
2019-02-06T22:53:18.529Z,98254.59
2019-02-06T22:57:21.994Z,98254.22
2019-02-06T23:01:25.461Z,98250.80
2019-02-06T23:05:28.921Z,98249.92
2019-02-06T23:09:32.397Z,98244.32
2019-02-06T23:13:35.847Z,98242.62
2019-02-06T23:17:39.319Z,98234.89
2019-02-06T23:21:43.054Z,98218.12
2019-02-06T23:25:46.524Z,98213.81
2019-02-06T23:29:50.048Z,98210.80
2019-02-06T23:33:53.514Z,98210.38
2019-02-06T23:37:56.974Z,98201.37
2019-02-06T23:42:00.443Z,98187.16
2019-02-06T23:46:03.982Z,98181.15
2019-02-06T23:50:07.445Z,98179.02
2019-02-06T23:54:10.908Z,98181.17
2019-02-06T23:58:14.370Z,98175.56
